Santa Susana, California
Current Conditions -  °F | °C
As of 10:51 PM on Wednesday 17 Dec 2014 (Local Time) from KVNY Reporting Station
Clear Clear  
Wind Chill: 49°   Ceiling: Unl
Heat Index: 49°   Visibility: 10mi
Dew Point: 44°   Wind: 3mph
Humidity: 83%   Direction: 350°N
Pressure: 30.11"   Gusts: NA
Location:  34.2903°N, 118.687°W
Report Text: KVNY 180651Z AUTO 35003KT 10SM CLR 09/07 A3011 RMK AO2 SLP193 T00940067
Loading
Personal Weather Stations






























Interactive Weather Map New forecast layout! Learn more

10-Day Weather Forecast

Advertisements
Track Severe Weather on mobile